Time;durP1;ratioP1;P1;durP2;ratioP2;P2;SDS_P1;SDS_P2;PMS_P1;PMS_P2;Temp;Humidity;BMP_temperature;BMP_pressure;BME280_temperature;BME280_humidity;BME280_pressure;Samples;Min_cycle;Max_cycle;Signal;HPM_P1;HPM_P2
2021/10/07 00:02:13;;;;;;;59.15;33.25;;;11.30;99.90;;;;;;5078835;28;20477;-84
2021/10/07 00:04:39;;;;;;;56.35;32.50;;;11.30;99.90;;;;;;5095410;28;20381;-84
2021/10/07 00:07:04;;;;;;;59.22;32.80;;;11.40;99.90;;;;;;5095591;28;20024;-83
2021/10/07 00:09:32;;;;;;;53.55;32.72;;;11.40;99.90;;;;;;5095320;28;20067;-83
2021/10/07 00:11:57;;;;;;;56.92;33.58;;;11.40;99.90;;;;;;5095416;28;20036;-84
2021/10/07 00:14:23;;;;;;;51.70;31.35;;;11.40;99.90;;;;;;5093622;28;20444;-83
2021/10/07 00:16:49;;;;;;;51.83;32.28;;;11.50;99.90;;;;;;5077295;28;20033;-84
2021/10/07 00:19:15;;;;;;;51.22;31.83;;;11.40;99.90;;;;;;5073654;28;20504;-84
2021/10/07 00:21:41;;;;;;;46.30;30.02;;;11.40;99.90;;;;;;5086743;28;20377;-83
2021/10/07 00:24:07;;;;;;;47.97;29.30;;;11.50;99.90;;;;;;5080859;28;20029;-83
2021/10/07 00:26:43;;;;;;;48.00;30.20;;;11.50;99.90;;;;;;5093398;28;20021;-84
2021/10/07 00:31:46;;;;;;;46.72;29.30;;;11.40;99.90;;;;;;5095063;28;20042;-83
2021/10/07 00:34:27;;;;;;;48.17;29.95;;;11.40;99.90;;;;;;5110707;28;20062;-83
2021/10/07 00:39:21;;;;;;;48.70;31.35;;;11.40;99.90;;;;;;5081289;28;20028;-82
2021/10/07 00:41:47;;;;;;;53.05;31.33;;;11.40;99.90;;;;;;5073143;28;20154;-83
2021/10/07 00:44:13;;;;;;;52.67;31.80;;;11.50;99.90;;;;;;5072865;28;20115;-83
2021/10/07 00:46:51;;;;;;;46.88;30.35;;;11.40;99.90;;;;;;5074418;28;20025;-83
2021/10/07 00:49:19;;;;;;;48.38;32.10;;;11.40;99.90;;;;;;5074450;28;20066;-83
2021/10/07 00:51:45;;;;;;;52.63;31.50;;;11.40;99.90;;;;;;5073012;28;20043;-83
2021/10/07 00:54:13;;;;;;;47.83;31.52;;;11.40;99.90;;;;;;5073073;28;20025;-83
2021/10/07 00:56:40;;;;;;;51.30;33.63;;;11.40;99.90;;;;;;5072812;28;20174;-83
2021/10/07 00:59:06;;;;;;;50.65;31.83;;;11.40;99.90;;;;;;5083637;28;20023;-83
2021/10/07 01:01:32;;;;;;;57.63;35.13;;;11.40;99.90;;;;;;5093965;28;20020;-82
2021/10/07 01:03:58;;;;;;;53.60;34.78;;;11.40;99.90;;;;;;5072840;28;20036;-83
2021/10/07 01:06:24;;;;;;;53.03;32.70;;;11.40;99.90;;;;;;5072807;28;20442;-82
2021/10/07 01:08:50;;;;;;;53.55;33.47;;;11.40;99.90;;;;;;5073996;28;20023;-82
2021/10/07 01:11:16;;;;;;;50.53;32.60;;;11.50;99.90;;;;;;5074022;28;20119;-83
2021/10/07 01:13:42;;;;;;;56.60;33.58;;;11.50;99.90;;;;;;5072591;28;20052;-82
2021/10/07 01:16:08;;;;;;;50.70;33.13;;;11.50;99.90;;;;;;5073951;28;20043;-83
2021/10/07 01:18:35;;;;;;;44.28;28.50;;;11.50;99.90;;;;;;5073720;28;20017;-83
2021/10/07 01:21:02;;;;;;;48.30;29.30;;;11.50;99.90;;;;;;5072557;28;20012;-83
2021/10/07 01:23:28;;;;;;;53.80;35.75;;;11.50;99.90;;;;;;5072908;28;20040;-83
2021/10/07 01:25:53;;;;;;;53.17;34.45;;;11.50;99.90;;;;;;5077202;28;20374;-83
2021/10/07 01:28:19;;;;;;;51.50;33.90;;;11.50;99.90;;;;;;5073584;28;20504;-82
2021/10/07 01:30:45;;;;;;;56.08;34.42;;;11.50;99.90;;;;;;5072243;28;20545;-83
2021/10/07 01:33:11;;;;;;;52.08;32.03;;;11.50;99.90;;;;;;5073567;28;20020;-83
2021/10/07 01:35:37;;;;;;;47.17;32.08;;;11.50;99.90;;;;;;5073471;28;20073;-83
2021/10/07 01:38:04;;;;;;;52.67;33.15;;;11.50;99.90;;;;;;5072892;28;20024;-83
2021/10/07 01:40:31;;;;;;;55.40;36.15;;;11.50;99.90;;;;;;5109406;28;20027;-83
2021/10/07 01:42:56;;;;;;;55.65;34.97;;;11.50;99.90;;;;;;5109417;28;20043;-83
2021/10/07 01:45:22;;;;;;;53.97;35.13;;;11.50;99.90;;;;;;5093503;28;20020;-83
2021/10/07 01:47:48;;;;;;;52.95;34.38;;;11.50;99.90;;;;;;5093547;28;20035;-83
2021/10/07 01:50:15;;;;;;;53.25;35.00;;;11.50;99.90;;;;;;5093349;28;20385;-83
2021/10/07 01:52:41;;;;;;;47.53;30.65;;;11.50;99.90;;;;;;5093447;28;20032;-83
2021/10/07 01:55:08;;;;;;;42.72;28.42;;;11.50;99.90;;;;;;5093341;28;20012;-83
2021/10/07 01:57:34;;;;;;;46.15;29.52;;;11.50;99.90;;;;;;5074137;28;20389;-83
2021/10/07 02:00:00;;;;;;;44.13;28.15;;;11.50;99.90;;;;;;5073143;28;20032;-83
2021/10/07 02:02:25;;;;;;;48.92;30.80;;;11.40;99.90;;;;;;5073176;28;20390;-83
2021/10/07 02:04:51;;;;;;;47.03;30.52;;;11.40;99.90;;;;;;5093261;28;20085;-83
2021/10/07 02:07:17;;;;;;;45.58;31.45;;;11.40;99.90;;;;;;5088825;28;20027;-83
2021/10/07 02:09:42;;;;;;;49.75;31.23;;;11.40;99.90;;;;;;5072454;28;20012;-84
2021/10/07 02:12:08;;;;;;;50.67;32.65;;;11.40;99.90;;;;;;5078080;28;20111;-84
2021/10/07 02:14:34;;;;;;;63.30;37.20;;;11.30;99.90;;;;;;5107049;28;20496;-84
2021/10/07 02:17:00;;;;;;;59.90;36.05;;;11.30;99.90;;;;;;5072931;28;20021;-84
2021/10/07 02:19:25;;;;;;;57.88;34.92;;;11.30;99.90;;;;;;5071573;28;20024;-84
2021/10/07 02:21:52;;;;;;;60.75;36.50;;;11.20;99.90;;;;;;5073183;28;20382;-84
2021/10/07 02:24:18;;;;;;;60.45;36.72;;;11.20;99.90;;;;;;5071653;28;20386;-84
2021/10/07 02:26:43;;;;;;;52.20;31.67;;;11.20;99.90;;;;;;5088638;28;20020;-83
2021/10/07 02:29:09;;;;;;;52.67;32.53;;;11.20;99.90;;;;;;5091623;28;20028;-83
2021/10/07 02:31:35;;;;;;;60.35;34.42;;;11.20;99.90;;;;;;5092924;28;20488;-82
2021/10/07 02:34:01;;;;;;;53.08;32.33;;;11.30;99.90;;;;;;5091619;28;20473;-83
2021/10/07 02:36:27;;;;;;;53.58;32.40;;;11.30;99.90;;;;;;5091625;28;20020;-82
2021/10/07 02:38:52;;;;;;;56.28;33.15;;;11.30;99.90;;;;;;5091623;28;20024;-83
2021/10/07 02:41:18;;;;;;;51.05;33.38;;;11.30;99.90;;;;;;5091674;28;20027;-83
2021/10/07 02:43:44;;;;;;;47.45;29.58;;;11.30;99.90;;;;;;5089949;28;20043;-83
2021/10/07 02:46:11;;;;;;;52.55;32.78;;;11.30;99.90;;;;;;5070677;28;20031;-84
2021/10/07 02:48:37;;;;;;;56.33;34.72;;;11.30;99.90;;;;;;5071329;28;20449;-83
2021/10/07 02:51:03;;;;;;;53.25;33.50;;;11.30;99.90;;;;;;5071362;28;20041;-82
2021/10/07 02:53:31;;;;;;;54.17;33.78;;;11.30;99.90;;;;;;5071171;28;20029;-83
2021/10/07 02:55:58;;;;;;;52.20;32.22;;;11.30;99.90;;;;;;5072771;28;20033;-84
2021/10/07 02:58:24;;;;;;;49.70;31.10;;;11.40;99.90;;;;;;5071078;28;20037;-83
2021/10/07 03:00:50;;;;;;;50.42;29.90;;;11.30;99.90;;;;;;5071283;28;20466;-83
2021/10/07 03:03:16;;;;;;;48.10;30.73;;;11.30;99.90;;;;;;5072398;28;20029;-82
2021/10/07 03:05:41;;;;;;;52.58;32.20;;;11.30;99.90;;;;;;5073332;28;20108;-82
2021/10/07 03:08:07;;;;;;;55.30;31.60;;;11.20;99.90;;;;;;5075076;28;20413;-82
2021/10/07 03:10:33;;;;;;;53.20;35.50;;;11.20;99.90;;;;;;5076175;28;20056;-82
2021/10/07 03:12:58;;;;;;;45.58;29.55;;;11.20;99.90;;;;;;5074924;28;20074;-83
2021/10/07 03:15:24;;;;;;;53.58;32.83;;;11.20;99.90;;;;;;5078732;28;20028;-83
2021/10/07 03:17:50;;;;;;;50.28;31.60;;;11.20;99.90;;;;;;5074892;28;20102;-82
2021/10/07 03:20:16;;;;;;;56.67;34.75;;;11.30;99.90;;;;;;5074685;28;20044;-83
2021/10/07 03:22:42;;;;;;;52.85;33.65;;;11.30;99.90;;;;;;5074808;28;20051;-83
2021/10/07 03:25:08;;;;;;;56.65;36.38;;;11.20;99.90;;;;;;5075963;28;20024;-83
2021/10/07 03:27:35;;;;;;;65.07;39.10;;;11.20;99.90;;;;;;5074614;28;20029;-82
2021/10/07 03:30:00;;;;;;;70.45;39.10;;;11.20;99.90;;;;;;5075884;28;20024;-83
2021/10/07 03:32:26;;;;;;;69.00;40.33;;;11.20;99.90;;;;;;5074468;28;20040;-84
2021/10/07 03:34:52;;;;;;;73.65;44.78;;;11.20;99.90;;;;;;5074486;28;20082;-83
2021/10/07 03:37:17;;;;;;;80.22;48.10;;;11.20;99.90;;;;;;5074809;28;20051;-84
2021/10/07 03:39:43;;;;;;;194.23;100.88;;;11.20;99.90;;;;;;5074381;28;20371;-84
2021/10/07 03:42:09;;;;;;;154.18;81.20;;;11.30;99.90;;;;;;5075644;28;20021;-84
2021/10/07 03:44:35;;;;;;;100.25;55.90;;;11.20;99.90;;;;;;5075841;28;20371;-83
2021/10/07 03:47:01;;;;;;;115.03;60.08;;;11.20;99.90;;;;;;5095940;28;20020;-83
2021/10/07 03:49:27;;;;;;;111.28;65.20;;;11.20;99.90;;;;;;5111553;28;20111;-83
2021/10/07 03:51:52;;;;;;;85.72;51.42;;;11.20;99.90;;;;;;5095696;28;20500;-83
2021/10/07 03:54:18;;;;;;;62.50;36.05;;;11.10;99.90;;;;;;5095663;28;20027;-83
2021/10/07 03:56:44;;;;;;;61.13;35.42;;;11.20;99.90;;;;;;5095590;28;20489;-83
2021/10/07 03:59:09;;;;;;;59.00;34.95;;;11.10;99.90;;;;;;5095730;28;20102;-83
2021/10/07 04:01:36;;;;;;;67.82;40.30;;;11.10;99.90;;;;;;5111315;28;20459;-83
2021/10/07 04:04:01;;;;;;;66.25;39.03;;;11.10;99.90;;;;;;5111214;28;20050;-83
2021/10/07 04:06:27;;;;;;;65.03;39.60;;;11.10;99.90;;;;;;5095510;28;20020;-84
2021/10/07 04:08:53;;;;;;;64.35;39.30;;;11.10;99.90;;;;;;5111042;28;20450;-84
2021/10/07 04:11:20;;;;;;;63.03;39.60;;;11.10;99.90;;;;;;5111455;28;20461;-84
2021/10/07 04:13:47;;;;;;;65.53;37.13;;;11.10;99.90;;;;;;5111270;28;20028;-83
2021/10/07 04:16:13;;;;;;;64.05;38.80;;;11.10;99.90;;;;;;5096891;28;20025;-83
2021/10/07 04:18:40;;;;;;;72.30;41.95;;;11.10;99.90;;;;;;5073788;28;20119;-83
2021/10/07 04:21:06;;;;;;;67.15;41.15;;;11.10;99.90;;;;;;5073765;28;20017;-83
2021/10/07 04:23:32;;;;;;;69.53;41.55;;;11.10;99.90;;;;;;5073602;28;20021;-83
2021/10/07 04:25:58;;;;;;;64.22;41.42;;;11.20;99.90;;;;;;5074936;28;20023;-84
2021/10/07 04:28:23;;;;;;;63.38;39.42;;;11.20;99.90;;;;;;5073544;28;20056;-84
2021/10/07 04:30:49;;;;;;;72.35;41.95;;;11.20;99.90;;;;;;5073683;28;20040;-84
2021/10/07 04:33:15;;;;;;;61.05;40.97;;;11.20;99.90;;;;;;5075051;28;20031;-84
2021/10/07 04:35:40;;;;;;;68.53;40.35;;;11.20;99.90;;;;;;5075609;28;20017;-83
2021/10/07 04:38:07;;;;;;;69.32;40.00;;;11.30;99.90;;;;;;5077288;28;20053;-83
2021/10/07 04:40:33;;;;;;;72.60;42.80;;;11.30;99.90;;;;;;5081001;28;20552;-83
2021/10/07 04:42:59;;;;;;;64.60;40.30;;;11.30;99.90;;;;;;5084429;28;20172;-84
2021/10/07 04:45:25;;;;;;;71.45;40.40;;;11.30;99.90;;;;;;5081124;28;20024;-84
2021/10/07 04:47:51;;;;;;;65.97;39.20;;;11.30;99.90;;;;;;5086470;28;20027;-85
2021/10/07 04:50:17;;;;;;;64.30;36.50;;;11.30;99.90;;;;;;5087108;28;20013;-83
2021/10/07 04:52:43;;;;;;;62.05;34.97;;;11.30;99.90;;;;;;5079140;28;20098;-83
2021/10/07 04:55:09;;;;;;;59.80;34.95;;;11.30;99.90;;;;;;5079436;28;20032;-83
2021/10/07 04:57:35;;;;;;;68.82;38.20;;;11.30;99.90;;;;;;5073807;28;20059;-83
2021/10/07 05:00:02;;;;;;;64.25;36.25;;;11.30;99.90;;;;;;5083882;28;20016;-83
2021/10/07 05:02:28;;;;;;;55.45;33.40;;;11.30;99.90;;;;;;5077970;28;20035;-82
2021/10/07 05:04:54;;;;;;;60.30;35.67;;;11.30;99.90;;;;;;5079068;28;20021;-83
2021/10/07 05:07:19;;;;;;;52.88;33.42;;;11.30;99.90;;;;;;5078611;28;20440;-83
2021/10/07 05:09:45;;;;;;;57.83;33.00;;;11.30;99.90;;;;;;5077199;28;20040;-83
2021/10/07 05:12:11;;;;;;;57.60;33.83;;;11.40;99.90;;;;;;5086466;28;20073;-83
2021/10/07 05:14:36;;;;;;;58.17;34.15;;;11.40;99.90;;;;;;5080834;28;20105;-83
2021/10/07 05:17:03;;;;;;;72.93;38.65;;;11.40;99.90;;;;;;5087564;28;20457;-83
2021/10/07 05:19:28;;;;;;;68.45;38.90;;;11.40;99.90;;;;;;5080652;28;20032;-83
2021/10/07 05:21:55;;;;;;;65.18;38.22;;;11.40;99.90;;;;;;5077496;28;20466;-83
2021/10/07 05:24:20;;;;;;;67.18;38.95;;;11.40;99.90;;;;;;5079521;28;20020;-83
2021/10/07 05:26:46;;;;;;;68.38;39.17;;;11.40;99.90;;;;;;5081731;28;20521;-83
2021/10/07 05:29:12;;;;;;;63.78;36.67;;;11.40;99.90;;;;;;5078276;28;20107;-83
2021/10/07 05:31:37;;;;;;;63.05;37.45;;;11.30;99.90;;;;;;5088834;28;20020;-83
2021/10/07 05:34:03;;;;;;;62.33;35.95;;;11.30;99.90;;;;;;5080725;28;20016;-83
2021/10/07 05:36:29;;;;;;;71.22;40.40;;;11.20;99.90;;;;;;5088727;28;20024;-82
2021/10/07 05:38:55;;;;;;;58.60;32.97;;;11.20;99.90;;;;;;5077723;28;20086;-84
2021/10/07 05:41:21;;;;;;;61.35;35.28;;;11.20;99.90;;;;;;5085685;28;20095;-82
2021/10/07 05:43:46;;;;;;;64.75;34.80;;;11.20;99.90;;;;;;5072080;28;20054;-82
2021/10/07 05:46:12;;;;;;;65.32;37.63;;;11.20;99.90;;;;;;5072042;28;20021;-82
2021/10/07 05:48:38;;;;;;;59.83;34.85;;;11.20;99.90;;;;;;5080337;28;20111;-82
2021/10/07 05:51:04;;;;;;;62.35;38.33;;;11.20;99.90;;;;;;5083311;28;20063;-83
2021/10/07 05:53:30;;;;;;;61.35;34.50;;;11.30;99.90;;;;;;5073001;28;20021;-83
2021/10/07 05:55:56;;;;;;;59.00;36.45;;;11.30;99.90;;;;;;5085593;28;20473;-83
2021/10/07 05:58:21;;;;;;;59.20;35.83;;;11.30;99.90;;;;;;5089998;28;20053;-82
2021/10/07 06:00:47;;;;;;;55.10;32.15;;;11.40;99.90;;;;;;5089130;28;20389;-82
2021/10/07 06:03:13;;;;;;;62.17;34.65;;;11.40;99.90;;;;;;5090367;28;20024;-83
2021/10/07 06:05:39;;;;;;;58.08;33.30;;;11.40;99.90;;;;;;5072888;28;20509;-81
2021/10/07 06:08:20;;;;;;;52.28;32.03;;;11.40;99.90;;;;;;5071123;28;20024;-81
2021/10/07 06:10:49;;;;;;;55.33;33.42;;;11.40;99.90;;;;;;5085920;28;20040;-82
2021/10/07 06:13:14;;;;;;;56.88;35.50;;;11.40;99.90;;;;;;5076273;28;20051;-83
2021/10/07 06:15:43;;;;;;;60.58;36.70;;;11.40;99.90;;;;;;5069525;28;20417;-83
2021/10/07 06:18:08;;;;;;;66.97;33.70;;;11.40;99.90;;;;;;5069693;28;20464;-81
2021/10/07 06:20:35;;;;;;;57.08;34.22;;;11.50;99.90;;;;;;5076293;28;20119;-81
2021/10/07 06:23:03;;;;;;;61.33;35.50;;;11.50;99.90;;;;;;5072993;28;20020;-82
2021/10/07 06:25:34;;;;;;;58.80;33.75;;;11.50;99.90;;;;;;5084970;28;20074;-82
2021/10/07 06:28:02;;;;;;;56.35;34.65;;;11.60;99.90;;;;;;5089325;28;20012;-82
2021/10/07 06:30:28;;;;;;;57.28;33.65;;;11.70;99.90;;;;;;5081041;28;20079;-81
2021/10/07 06:32:57;;;;;;;54.70;32.75;;;11.70;99.90;;;;;;5083907;28;20075;-82
2021/10/07 06:35:23;;;;;;;45.67;27.50;;;11.80;99.90;;;;;;5090763;28;20111;-83
2021/10/07 06:37:49;;;;;;;45.55;25.70;;;11.80;99.90;;;;;;5083177;28;20534;-82
2021/10/07 06:40:15;;;;;;;46.88;26.00;;;11.70;99.90;;;;;;5085755;28;20020;-82
2021/10/07 06:42:41;;;;;;;46.50;27.90;;;11.80;99.90;;;;;;5086760;28;20374;-82
2021/10/07 06:45:08;;;;;;;43.17;27.05;;;11.80;99.90;;;;;;5086908;28;20024;-83
2021/10/07 06:47:34;;;;;;;48.00;28.73;;;11.80;99.90;;;;;;5078952;28;20021;-82
2021/10/07 06:50:02;;;;;;;45.60;26.80;;;11.80;99.90;;;;;;5089745;28;20402;-82
2021/10/07 06:52:28;;;;;;;45.63;27.20;;;11.80;99.90;;;;;;5076378;28;20170;-83
2021/10/07 06:54:53;;;;;;;55.08;31.48;;;11.80;99.90;;;;;;5079659;28;20099;-83
2021/10/07 06:57:19;;;;;;;51.25;29.30;;;11.90;99.90;;;;;;5090655;28;20027;-82
2021/10/07 06:59:45;;;;;;;57.50;29.13;;;11.80;99.90;;;;;;5086490;28;20033;-83
2021/10/07 07:02:10;;;;;;;66.70;31.83;;;11.80;99.90;;;;;;5086528;28;20525;-83
2021/10/07 07:04:36;;;;;;;69.70;33.22;;;11.80;99.90;;;;;;5092566;28;20031;-83
2021/10/07 07:07:02;;;;;;;67.68;31.42;;;11.70;99.90;;;;;;5095495;28;20374;-83
2021/10/07 07:09:27;;;;;;;74.82;31.92;;;11.70;99.90;;;;;;5085364;28;20035;-82
2021/10/07 07:11:53;;;;;;;73.70;32.35;;;11.60;99.90;;;;;;5076229;28;20032;-82
2021/10/07 07:14:19;;;;;;;88.30;36.95;;;11.50;99.90;;;;;;5086356;28;20030;-83
2021/10/07 07:16:45;;;;;;;89.78;35.88;;;11.50;99.90;;;;;;5089057;28;20417;-82
2021/10/07 07:19:10;;;;;;;66.93;31.45;;;11.50;99.90;;;;;;5076252;28;20031;-83
2021/10/07 07:21:37;;;;;;;74.95;31.48;;;11.40;99.90;;;;;;5074775;28;20392;-81
2021/10/07 07:24:03;;;;;;;73.47;30.70;;;11.40;99.90;;;;;;5074780;28;20017;-82
2021/10/07 07:26:31;;;;;;;66.15;29.30;;;11.30;99.90;;;;;;5076947;28;20052;-82
2021/10/07 07:28:57;;;;;;;52.30;25.77;;;11.30;99.90;;;;;;5084368;28;20050;-82
2021/10/07 07:31:23;;;;;;;64.97;28.73;;;11.30;99.90;;;;;;5093821;28;20481;-82
2021/10/07 07:33:49;;;;;;;65.15;30.60;;;11.30;99.90;;;;;;5093991;28;20013;-82
2021/10/07 07:36:16;;;;;;;62.55;28.38;;;11.20;99.90;;;;;;5088645;28;20076;-82
2021/10/07 07:38:42;;;;;;;63.30;30.48;;;11.30;99.90;;;;;;5087179;28;20020;-83
2021/10/07 07:41:10;;;;;;;59.13;28.85;;;11.30;99.90;;;;;;5074795;28;20358;-82
2021/10/07 07:43:36;;;;;;;59.63;29.55;;;11.40;99.90;;;;;;5071552;28;20516;-82
2021/10/07 07:46:02;;;;;;;55.42;28.85;;;11.30;99.90;;;;;;5073134;28;20095;-82
2021/10/07 07:48:29;;;;;;;69.63;31.85;;;11.30;99.90;;;;;;5091091;28;20031;-82
2021/10/07 07:50:55;;;;;;;62.65;30.45;;;11.30;99.90;;;;;;5095071;28;20057;-82
2021/10/07 07:53:20;;;;;;;62.58;31.42;;;11.20;99.90;;;;;;5092779;28;20031;-81
2021/10/07 07:55:46;;;;;;;85.97;31.33;;;11.20;99.90;;;;;;5081232;28;20028;-81
2021/10/07 07:58:12;;;;;;;82.70;34.03;;;11.00;99.90;;;;;;5095268;28;20036;-81
2021/10/07 08:00:39;;;;;;;92.47;34.25;;;10.90;99.90;;;;;;5093918;28;20396;-82
2021/10/07 08:03:06;;;;;;;72.63;32.22;;;10.90;99.90;;;;;;5094399;28;20193;-81
2021/10/07 08:05:32;;;;;;;74.72;31.98;;;10.80;99.90;;;;;;5095494;28;20070;-82
2021/10/07 08:07:58;;;;;;;83.57;35.13;;;10.80;99.90;;;;;;5095537;28;20020;-81
2021/10/07 08:10:24;;;;;;;75.60;31.48;;;10.80;99.90;;;;;;5092390;28;20471;-82
2021/10/07 08:12:50;;;;;;;68.22;33.00;;;10.80;99.90;;;;;;5091907;28;20032;-82
2021/10/07 08:15:16;;;;;;;71.30;32.13;;;10.90;99.90;;;;;;5093291;28;20161;-81
2021/10/07 08:17:42;;;;;;;70.45;32.92;;;11.00;99.90;;;;;;5077103;28;20389;-81
2021/10/07 08:20:10;;;;;;;71.55;34.63;;;11.00;99.90;;;;;;5071655;28;20017;-81
2021/10/07 08:22:36;;;;;;;64.35;32.30;;;11.10;99.90;;;;;;5071597;28;20029;-82
2021/10/07 08:25:02;;;;;;;70.22;32.78;;;11.10;99.90;;;;;;5074173;28;20029;-82
2021/10/07 08:27:28;;;;;;;61.03;32.97;;;11.10;99.90;;;;;;5095006;28;20028;-82
2021/10/07 08:29:55;;;;;;;62.88;29.48;;;11.20;99.90;;;;;;5095081;28;20031;-82
2021/10/07 08:32:21;;;;;;;62.00;31.85;;;11.30;99.90;;;;;;5093179;28;20043;-82
2021/10/07 08:34:47;;;;;;;61.45;32.03;;;11.30;99.90;;;;;;5076522;28;20048;-82
2021/10/07 08:37:13;;;;;;;57.55;30.20;;;11.40;99.90;;;;;;5073390;28;20055;-82
2021/10/07 08:39:39;;;;;;;60.97;32.08;;;11.50;99.90;;;;;;5073199;28;20031;-82
2021/10/07 08:42:04;;;;;;;55.25;31.00;;;11.60;99.90;;;;;;5073800;28;20017;-82
2021/10/07 08:44:31;;;;;;;65.25;33.78;;;11.60;99.90;;;;;;5082459;28;20076;-82
2021/10/07 08:46:58;;;;;;;59.05;31.65;;;11.60;99.90;;;;;;5092666;28;20531;-82
2021/10/07 08:49:27;;;;;;;56.20;30.40;;;11.60;99.90;;;;;;5110382;28;20020;-82
2021/10/07 08:51:53;;;;;;;58.88;31.48;;;11.60;99.90;;;;;;5110321;28;20028;-82
2021/10/07 08:54:20;;;;;;;57.80;31.00;;;11.50;99.90;;;;;;5094272;28;20070;-82
2021/10/07 08:56:47;;;;;;;59.05;31.45;;;11.60;99.90;;;;;;5110223;28;20524;-82
2021/10/07 08:59:14;;;;;;;52.42;28.90;;;11.80;99.90;;;;;;5110163;28;20032;-81
2021/10/07 09:01:43;;;;;;;55.20;31.48;;;11.80;99.90;;;;;;5110070;28;20115;-82
2021/10/07 09:04:42;;;;;;;56.08;30.50;;;11.90;99.90;;;;;;5109607;28;20493;-82
2021/10/07 09:07:10;;;;;;;51.83;28.63;;;12.00;99.90;;;;;;5090032;28;20035;-82
2021/10/07 09:09:39;;;;;;;41.20;26.42;;;12.00;99.90;;;;;;5091281;28;20028;-82
2021/10/07 09:12:13;;;;;;;51.08;27.48;;;12.20;99.90;;;;;;5074057;28;20033;-81
2021/10/07 09:14:48;;;;;;;46.60;28.58;;;12.40;99.90;;;;;;5072557;28;20029;-81
2021/10/07 09:17:17;;;;;;;51.40;28.40;;;12.50;99.90;;;;;;5085470;28;20427;-81
2021/10/07 09:19:45;;;;;;;53.90;28.20;;;12.50;99.90;;;;;;5109755;28;20097;-81
2021/10/07 09:22:23;;;;;;;49.67;27.05;;;12.40;99.90;;;;;;5109674;28;20544;-81
2021/10/07 09:24:51;;;;;;;46.08;27.48;;;12.40;99.90;;;;;;5109414;28;20069;-81
2021/10/07 09:27:24;;;;;;;42.80;25.30;;;12.50;99.90;;;;;;5093848;28;20028;-81
2021/10/07 09:30:02;;;;;;;39.58;24.75;;;12.70;99.90;;;;;;5109580;28;20024;-81
2021/10/07 09:32:32;;;;;;;39.40;24.38;;;13.00;99.90;;;;;;5109417;28;20044;-81
2021/10/07 09:35:00;;;;;;;34.20;22.73;;;13.30;99.90;;;;;;5109606;28;20385;-81
2021/10/07 09:37:29;;;;;;;30.63;20.95;;;13.70;99.90;;;;;;5090735;28;20494;-81
2021/10/07 09:39:59;;;;;;;25.77;18.40;;;13.70;99.90;;;;;;5072208;28;20571;-81
2021/10/07 09:42:37;;;;;;;25.27;17.90;;;13.50;99.90;;;;;;5073420;28;20112;-81
2021/10/07 09:45:02;;;;;;;22.23;15.75;;;13.40;99.90;;;;;;5072073;28;20016;-81
2021/10/07 09:47:33;;;;;;;22.92;16.40;;;13.40;99.90;;;;;;5072044;28;20055;-81
2021/10/07 09:50:22;;;;;;;23.08;16.08;;;13.30;99.90;;;;;;5072813;28;20104;-81
2021/10/07 09:53:21;;;;;;;22.50;17.55;;;13.40;99.90;;;;;;5072658;28;20082;-81
2021/10/07 09:55:49;;;;;;;27.88;16.73;;;13.30;99.90;;;;;;5072955;28;20036;-81
2021/10/07 09:58:20;;;;;;;22.17;15.10;;;13.40;99.90;;;;;;5073734;28;20032;-81
2021/10/07 10:00:48;;;;;;;28.70;18.42;;;13.30;99.90;;;;;;5093343;28;20495;-81
2021/10/07 10:03:15;;;;;;;22.58;17.38;;;13.20;99.90;;;;;;5109082;28;20016;-81
2021/10/07 10:05:44;;;;;;;21.20;16.45;;;13.20;99.90;;;;;;5108999;28;20056;-82
2021/10/07 10:08:11;;;;;;;25.35;17.65;;;13.20;99.90;;;;;;5108971;28;20081;-82
2021/10/07 10:10:39;;;;;;;24.85;17.88;;;13.30;99.90;;;;;;5093249;28;20020;-81
2021/10/07 10:13:05;;;;;;;28.42;19.80;;;13.30;99.90;;;;;;5108981;28;20036;-81
2021/10/07 10:15:33;;;;;;;27.38;19.80;;;13.30;99.90;;;;;;5107866;28;20036;-81
2021/10/07 10:18:00;;;;;;;31.95;22.20;;;13.10;99.90;;;;;;5108784;28;20088;-81
2021/10/07 10:20:29;;;;;;;32.05;23.45;;;13.20;99.90;;;;;;5108811;28;20024;-81
2021/10/07 10:23:00;;;;;;;34.40;23.70;;;13.10;99.90;;;;;;5108835;28;20557;-81
2021/10/07 10:25:30;;;;;;;35.38;23.35;;;13.10;99.90;;;;;;5108766;28;20504;-81
2021/10/07 10:28:07;;;;;;;30.60;23.80;;;13.10;99.90;;;;;;5077367;28;20028;-81
2021/10/07 10:30:47;;;;;;;31.25;22.55;;;13.10;99.90;;;;;;5074819;28;20061;-81
2021/10/07 10:33:29;;;;;;;32.85;22.65;;;13.00;99.90;;;;;;5084051;28;20032;-81
2021/10/07 10:35:55;;;;;;;30.80;23.57;;;13.10;99.90;;;;;;5071339;28;20023;-81
2021/10/07 10:38:21;;;;;;;32.53;24.45;;;13.30;99.90;;;;;;5079713;28;20255;-82
2021/10/07 10:40:47;;;;;;;39.42;24.17;;;13.50;99.90;;;;;;5076785;28;20029;-82
2021/10/07 10:43:18;;;;;;;33.10;21.77;;;13.50;99.90;;;;;;5072721;28;20025;-81
2021/10/07 10:45:53;;;;;;;31.85;23.27;;;13.50;99.90;;;;;;5088564;28;20034;-82
2021/10/07 10:48:52;;;;;;;28.63;21.73;;;13.60;99.90;;;;;;5087492;28;20063;-81
2021/10/07 10:51:18;;;;;;;25.65;20.10;;;13.80;99.90;;;;;;5070698;28;20464;-82
2021/10/07 10:54:09;;;;;;;26.90;19.90;;;14.10;99.90;;;;;;5071215;28;20037;-81
2021/10/07 10:56:41;;;;;;;27.77;19.08;;;14.20;99.90;;;;;;5074363;28;20374;-81
2021/10/07 10:59:18;;;;;;;27.45;19.75;;;14.30;99.90;;;;;;5091479;28;20048;-82
2021/10/07 11:01:44;;;;;;;25.85;19.80;;;14.20;99.90;;;;;;5078566;28;20056;-82
2021/10/07 11:04:10;;;;;;;21.08;16.58;;;14.20;99.90;;;;;;5071069;28;20135;-82
2021/10/07 11:07:13;;;;;;;23.38;16.10;;;14.20;99.90;;;;;;5073589;28;20123;-82
2021/10/07 11:09:55;;;;;;;;;;;14.20;99.90;;;;;;5074815;28;20056;-82
2021/10/07 11:12:22;;;;;;;25.02;18.13;;;14.20;99.90;;;;;;5090842;28;19964;-82
2021/10/07 11:14:50;;;;;;;21.65;17.10;;;14.20;99.90;;;;;;5091240;28;20026;-82
2021/10/07 11:17:18;;;;;;;27.77;19.05;;;14.20;99.90;;;;;;5085829;28;20025;-82
2021/10/07 11:19:45;;;;;;;26.33;18.73;;;14.20;99.90;;;;;;5072375;28;20052;-82
2021/10/07 11:22:11;;;;;;;27.10;18.08;;;14.10;99.90;;;;;;5086185;28;20025;-81
2021/10/07 11:24:51;;;;;;;21.83;16.45;;;14.10;99.90;;;;;;5090986;28;20020;-82
2021/10/07 11:27:34;;;;;;;19.20;14.75;;;14.10;99.90;;;;;;5093041;28;20028;-82
2021/10/07 11:30:00;;;;;;;26.05;18.02;;;14.20;99.90;;;;;;5094805;28;20552;-81
2021/10/07 11:32:26;;;;;;;26.25;18.10;;;14.20;99.90;;;;;;5095937;28;20038;-81
2021/10/07 11:35:11;;;;;;;43.42;18.92;;;14.00;99.90;;;;;;5093496;28;20110;-81
2021/10/07 11:37:51;;;;;;;22.17;15.40;;;14.00;99.90;;;;;;5092737;28;20028;-81
2021/10/07 11:40:34;;;;;;;24.67;16.63;;;13.90;99.90;;;;;;5071004;28;20256;-81
2021/10/07 11:43:05;;;;;;;22.90;14.82;;;13.90;99.90;;;;;;5090280;28;20400;-81
2021/10/07 11:45:34;;;;;;;21.95;13.48;;;14.00;99.90;;;;;;5072548;28;20431;-80
2021/10/07 11:48:04;;;;;;;18.75;14.60;;;14.00;99.90;;;;;;5085361;28;20056;-80
2021/10/07 11:50:30;;;;;;;17.73;13.20;;;13.90;99.90;;;;;;5074048;28;20040;-81
2021/10/07 11:52:56;;;;;;;22.27;13.52;;;13.90;99.90;;;;;;5083516;28;20098;-80
2021/10/07 11:55:25;;;;;;;18.02;11.77;;;14.00;99.90;;;;;;5072665;28;20532;-81
2021/10/07 11:57:59;;;;;;;17.73;12.95;;;14.00;99.90;;;;;;5091697;28;20073;-80
2021/10/07 12:00:41;;;;;;;21.65;13.02;;;14.10;99.90;;;;;;5109570;28;20127;-80
2021/10/07 12:03:12;;;;;;;21.85;13.38;;;14.30;99.90;;;;;;5108986;28;20024;-81
2021/10/07 12:05:39;;;;;;;19.45;13.63;;;14.40;99.90;;;;;;5109367;28;20028;-82
2021/10/07 12:08:12;;;;;;;19.13;11.07;;;14.40;99.90;;;;;;5108942;28;20477;-81
2021/10/07 12:10:48;;;;;;;20.35;12.70;;;14.30;99.90;;;;;;5093250;28;20689;-81
2021/10/07 12:13:15;;;;;;;21.13;11.85;;;14.40;99.90;;;;;;5108808;28;20032;-81
2021/10/07 12:15:51;;;;;;;16.20;11.15;;;14.40;99.90;;;;;;5093641;28;20081;-81
2021/10/07 12:18:18;;;;;;;17.23;11.70;;;14.50;99.90;;;;;;5108572;28;20039;-80
2021/10/07 12:21:01;;;;;;;17.02;12.25;;;14.60;99.90;;;;;;5109161;28;20111;-80
2021/10/07 12:23:27;;;;;;;19.58;12.00;;;14.80;99.90;;;;;;5085045;28;20054;-81
2021/10/07 12:26:01;;;;;;;15.55;11.50;;;14.90;99.90;;;;;;5091648;28;20119;-81
2021/10/07 12:28:28;;;;;;;15.93;10.90;;;15.00;99.90;;;;;;5073182;28;20539;-80
2021/10/07 12:30:58;;;;;;;13.13;10.07;;;14.90;99.90;;;;;;5072780;28;20493;-81
2021/10/07 12:33:26;;;;;;;18.20;10.82;;;14.80;99.90;;;;;;5074262;28;20028;-81
2021/10/07 12:36:09;;;;;;;18.65;11.30;;;14.70;99.90;;;;;;5072996;28;20498;-81
2021/10/07 12:38:50;;;;;;;17.38;10.98;;;14.80;99.90;;;;;;5070919;28;20206;-81